Time;durP1;ratioP1;P1;durP2;ratioP2;P2;SDS_P1;SDS_P2;PMS_P1;PMS_P2;Temp;Humidity;BMP_temperature;BMP_pressure;BME280_temperature;BME280_humidity;BME280_pressure;Samples;Min_cycle;Max_cycle;Signal;HPM_P1;HPM_P2
2022/01/08 00:00:35;;;;;;;7.47;4.53;;;;;8.10;100787.00;;;;5016788;28;20213;-81
2022/01/08 00:03:03;;;;;;;5.45;4.07;;;;;8.10;100785.00;;;;5014435;28;20221;-81
2022/01/08 00:05:31;;;;;;;5.07;3.67;;;;;8.10;100778.00;;;;5031574;28;20193;-81
2022/01/08 00:07:58;;;;;;;6.18;3.95;;;;;8.10;100783.00;;;;5025981;28;20204;-81
2022/01/08 00:10:26;;;;;;;4.63;3.17;;;;;8.00;100787.00;;;;5026973;28;20199;-81
2022/01/08 00:12:53;;;;;;;4.97;3.45;;;;;8.00;100788.00;;;;5022296;28;20586;-81
2022/01/08 00:15:22;;;;;;;6.28;3.80;;;;;8.00;100788.00;;;;5023669;28;20235;-80
2022/01/08 00:17:49;;;;;;;5.78;3.75;;;;;7.90;100783.00;;;;5021512;28;20680;-80
2022/01/08 00:20:16;;;;;;;5.60;3.33;;;;;7.90;100790.00;;;;5013083;28;20203;-81
2022/01/08 00:22:45;;;;;;;5.50;4.20;;;;;7.90;100784.00;;;;5020952;28;20217;-81
2022/01/08 00:25:13;;;;;;;4.97;3.65;;;;;7.80;100788.00;;;;5027509;28;20202;-81
2022/01/08 00:27:40;;;;;;;4.90;3.70;;;;;7.80;100781.00;;;;5033625;28;20253;-81
2022/01/08 00:30:08;;;;;;;6.25;4.03;;;;;7.80;100788.00;;;;5025414;28;20223;-80
2022/01/08 00:32:36;;;;;;;5.72;3.83;;;;;7.80;100790.00;;;;5025609;28;20207;-81
2022/01/08 00:35:03;;;;;;;5.68;3.70;;;;;7.70;100797.00;;;;5025500;28;20693;-81
2022/01/08 00:37:30;;;;;;;5.35;3.42;;;;;7.70;100795.00;;;;5035076;28;20249;-81
2022/01/08 00:39:59;;;;;;;6.45;4.20;;;;;7.70;100786.00;;;;5025597;28;20254;-80
2022/01/08 00:42:26;;;;;;;5.00;3.20;;;;;7.70;100802.00;;;;5030628;28;20224;-81
2022/01/08 00:44:53;;;;;;;6.15;3.58;;;;;7.60;100798.00;;;;5030397;28;20204;-81
2022/01/08 00:47:21;;;;;;;7.03;4.00;;;;;7.60;100808.00;;;;5030436;28;20250;-81
2022/01/08 00:49:48;;;;;;;5.70;3.85;;;;;7.60;100811.00;;;;5029505;28;20587;-81
2022/01/08 00:52:15;;;;;;;5.75;4.00;;;;;7.60;100809.00;;;;5031845;28;20210;-81
2022/01/08 00:54:42;;;;;;;6.03;3.67;;;;;7.50;100814.00;;;;5034743;28;20196;-81
2022/01/08 00:57:11;;;;;;;6.90;3.70;;;;;7.50;100812.00;;;;5029319;28;20211;-81
2022/01/08 00:59:38;;;;;;;6.50;3.70;;;;;7.50;100815.00;;;;5040589;28;20658;-81
2022/01/08 01:02:06;;;;;;;4.90;3.35;;;;;7.50;100807.00;;;;5030698;28;20205;-81
2022/01/08 01:04:33;;;;;;;4.13;3.72;;;;;7.50;100813.00;;;;5028187;28;20220;-81
2022/01/08 01:07:00;;;;;;;5.50;4.30;;;;;7.40;100811.00;;;;5026909;28;20217;-82
2022/01/08 01:09:27;;;;;;;6.05;4.05;;;;;7.40;100809.00;;;;5033861;28;20204;-79
2022/01/08 01:11:57;;;;;;;5.13;3.38;;;;;7.40;100815.00;;;;5046069;28;20208;-80
2022/01/08 01:14:27;;;;;;;4.85;4.03;;;;;7.30;100810.00;;;;5040696;28;20286;-80
2022/01/08 01:16:54;;;;;;;4.20;3.47;;;;;7.30;100817.00;;;;5037754;28;20208;-80
2022/01/08 01:19:22;;;;;;;4.30;3.58;;;;;7.30;100811.00;;;;5036779;28;20192;-80
2022/01/08 01:21:50;;;;;;;4.95;4.13;;;;;7.30;100809.00;;;;5015014;28;20225;-80
2022/01/08 01:24:21;;;;;;;4.93;3.70;;;;;7.30;100798.00;;;;5019658;28;20224;-80
2022/01/08 01:27:09;;;;;;;5.75;3.92;;;;;7.30;100810.00;;;;5022331;28;20197;-80
2022/01/08 01:29:48;;;;;;;4.40;3.40;;;;;7.30;100807.00;;;;5043241;28;20204;-80
2022/01/08 01:43:26;;;;;;;5.43;3.50;;;;;7.10;100812.00;;;;5024777;28;20222;-80
2022/01/08 01:48:39;;;;;;;6.00;3.90;;;;;7.10;100810.00;;;;5018782;28;20701;-80
2022/01/08 01:51:06;;;;;;;6.47;4.25;;;;;7.10;100819.00;;;;5029896;28;20201;-80
2022/01/08 01:53:34;;;;;;;4.63;3.58;;;;;7.10;100806.00;;;;5029059;28;20661;-80
2022/01/08 01:56:01;;;;;;;5.22;4.30;;;;;7.10;100805.00;;;;5018538;28;20199;-80
2022/01/08 01:58:28;;;;;;;6.53;4.45;;;;;7.10;100812.00;;;;5025929;28;20225;-79
2022/01/08 02:00:57;;;;;;;7.22;4.00;;;;;7.10;100802.00;;;;5028621;28;20201;-80
2022/01/08 02:03:24;;;;;;;5.22;4.10;;;;;7.10;100804.00;;;;5026899;28;20213;-80
2022/01/08 02:05:51;;;;;;;5.65;4.80;;;;;7.10;100799.00;;;;5018163;28;20208;-80
2022/01/08 02:08:19;;;;;;;5.18;4.30;;;;;7.10;100798.00;;;;5030956;28;20540;-80
2022/01/08 02:10:46;;;;;;;5.07;3.70;;;;;7.10;100805.00;;;;5022132;28;20690;-80
2022/01/08 02:13:22;;;;;;;4.95;3.88;;;;;7.00;100812.00;;;;5033053;28;20206;-80
2022/01/08 02:15:51;;;;;;;6.15;3.75;;;;;7.10;100806.00;;;;5031077;28;20210;-80
2022/01/08 02:18:21;;;;;;;4.88;3.83;;;;;7.00;100807.00;;;;5038257;28;20224;-80
2022/01/08 02:20:49;;;;;;;5.20;3.90;;;;;7.00;100797.00;;;;5020462;28;20209;-80
2022/01/08 02:23:17;;;;;;;5.15;4.07;;;;;7.00;100803.00;;;;5012652;28;20699;-80
2022/01/08 02:25:44;;;;;;;4.82;4.00;;;;;7.00;100802.00;;;;5026173;28;20218;-81
2022/01/08 02:28:11;;;;;;;6.68;4.07;;;;;7.00;100810.00;;;;5010667;28;20197;-81
2022/01/08 02:30:39;;;;;;;5.40;4.07;;;;;7.00;100806.00;;;;5021074;28;20585;-81
2022/01/08 02:33:06;;;;;;;5.82;3.95;;;;;7.00;100812.00;;;;5029922;28;20249;-81
2022/01/08 02:35:34;;;;;;;4.75;3.92;;;;;7.00;100808.00;;;;5032583;28;20200;-80
2022/01/08 02:38:03;;;;;;;5.95;4.28;;;;;7.00;100815.00;;;;5032400;28;20208;-81
2022/01/08 02:40:31;;;;;;;5.05;3.85;;;;;7.00;100826.00;;;;5017025;28;20254;-80
2022/01/08 02:43:02;;;;;;;6.47;4.10;;;;;7.00;100822.00;;;;5022155;28;20240;-80
2022/01/08 02:45:31;;;;;;;5.82;4.18;;;;;7.00;100822.00;;;;5042682;28;20547;-80
2022/01/08 02:47:59;;;;;;;5.32;4.47;;;;;6.90;100829.00;;;;5026735;28;20200;-81
2022/01/08 02:50:26;;;;;;;5.82;3.60;;;;;6.90;100828.00;;;;5031691;28;20208;-80
2022/01/08 02:52:53;;;;;;;4.72;3.92;;;;;6.90;100829.00;;;;5022064;28;20201;-80
2022/01/08 02:55:22;;;;;;;4.97;3.88;;;;;6.90;100827.00;;;;5032821;28;20199;-80
2022/01/08 02:57:50;;;;;;;3.92;3.50;;;;;6.90;100818.00;;;;5029539;28;20196;-80
2022/01/08 03:00:21;;;;;;;3.90;3.35;;;;;6.90;100823.00;;;;5021227;28;20204;-80
2022/01/08 03:02:51;;;;;;;3.97;3.08;;;;;6.90;100823.00;;;;5019332;28;20197;-80
2022/01/08 03:05:19;;;;;;;5.35;3.35;;;;;6.90;100821.00;;;;5017403;28;20627;-80
2022/01/08 03:07:49;;;;;;;5.13;3.97;;;;;6.90;100823.00;;;;5031870;28;20280;-81
2022/01/08 03:10:18;;;;;;;7.32;3.78;;;;;6.90;100822.00;;;;5013794;28;20277;-80
2022/01/08 03:12:47;;;;;;;6.43;3.67;;;;;6.90;100815.00;;;;5022610;28;20192;-80
2022/01/08 03:15:16;;;;;;;5.97;3.80;;;;;6.90;100821.00;;;;5023788;28;20205;-80
2022/01/08 03:17:44;;;;;;;4.63;4.13;;;;;6.90;100816.00;;;;5033613;28;20231;-80
2022/01/08 03:20:14;;;;;;;6.28;4.00;;;;;6.90;100810.00;;;;5021651;28;20241;-80
2022/01/08 03:22:43;;;;;;;5.78;3.83;;;;;6.90;100821.00;;;;5015961;28;20279;-80
2022/01/08 03:25:11;;;;;;;5.22;3.50;;;;;6.90;100816.00;;;;5027119;28;20247;-80
2022/01/08 03:27:41;;;;;;;3.72;3.15;;;;;6.90;100816.00;;;;5025992;28;20204;-80
2022/01/08 03:30:12;;;;;;;4.75;3.25;;;;;6.80;100819.00;;;;5034685;28;20196;-80
2022/01/08 03:32:40;;;;;;;6.05;3.45;;;;;6.80;100825.00;;;;5009209;28;20201;-80
2022/01/08 03:35:08;;;;;;;5.30;3.25;;;;;6.80;100820.00;;;;5019363;28;20211;-80
2022/01/08 03:37:36;;;;;;;4.82;3.38;;;;;6.80;100824.00;;;;5019587;28;20205;-80
2022/01/08 03:40:04;;;;;;;5.43;3.88;;;;;6.80;100828.00;;;;5027636;28;20208;-80
2022/01/08 03:42:31;;;;;;;5.85;2.97;;;;;6.80;100828.00;;;;5019856;28;20615;-80
2022/01/08 03:44:59;;;;;;;3.13;2.83;;;;;6.80;100829.00;;;;5025061;28;20231;-80
2022/01/08 03:47:52;;;;;;;4.03;2.88;;;;;6.80;100826.00;;;;5020756;28;20215;-80
2022/01/08 03:50:18;;;;;;;7.40;3.40;;;;;6.80;100826.00;;;;5025730;28;20195;-80
2022/01/08 03:52:46;;;;;;;4.47;3.22;;;;;6.80;100820.00;;;;5024064;28;20254;-80
2022/01/08 03:55:14;;;;;;;5.97;3.58;;;;;6.70;100831.00;;;;5025982;28;20220;-80
2022/01/08 03:57:41;;;;;;;5.13;3.33;;;;;6.70;100826.00;;;;5016610;28;20577;-81
2022/01/08 04:00:10;;;;;;;4.85;3.50;;;;;6.70;100829.00;;;;5026324;28;20222;-81
2022/01/08 04:02:38;;;;;;;5.32;3.08;;;;;6.70;100826.00;;;;5026158;28;20208;-80
2022/01/08 04:05:06;;;;;;;4.93;2.95;;;;;6.70;100836.00;;;;5025854;28;20227;-80
2022/01/08 04:07:33;;;;;;;4.07;3.08;;;;;6.70;100832.00;;;;5027557;28;20227;-80
2022/01/08 04:10:01;;;;;;;4.13;3.38;;;;;6.70;100828.00;;;;5025728;28;20205;-80
2022/01/08 04:12:35;;;;;;;4.57;3.20;;;;;6.70;100833.00;;;;5025126;28;20196;-80
2022/01/08 04:15:08;;;;;;;4.75;3.22;;;;;6.70;100833.00;;;;5020966;28;20693;-80
2022/01/08 04:17:35;;;;;;;4.72;3.38;;;;;6.60;100835.00;;;;5024651;28;20220;-80
2022/01/08 04:20:05;;;;;;;4.38;3.25;;;;;6.60;100843.00;;;;5025455;28;20204;-79
2022/01/08 04:22:35;;;;;;;3.38;3.03;;;;;6.60;100853.00;;;;5026907;28;20224;-80
2022/01/08 04:25:02;;;;;;;4.53;2.78;;;;;6.60;100843.00;;;;5024456;28;20231;-80
2022/01/08 04:27:29;;;;;;;4.63;3.08;;;;;6.60;100850.00;;;;5022357;28;20271;-80
2022/01/08 04:29:56;;;;;;;3.75;2.70;;;;;6.60;100852.00;;;;5024033;28;20196;-80
2022/01/08 04:32:25;;;;;;;8.88;3.13;;;;;6.60;100852.00;;;;5016075;28;20232;-80
2022/01/08 04:34:52;;;;;;;4.57;2.97;;;;;6.60;100851.00;;;;5030145;28;20395;-80
2022/01/08 04:37:20;;;;;;;5.63;3.30;;;;;6.60;100864.00;;;;5019258;28;20196;-80
2022/01/08 04:39:48;;;;;;;3.88;3.08;;;;;6.60;100869.00;;;;5024807;28;20570;-80
2022/01/08 04:42:15;;;;;;;5.07;3.47;;;;;6.60;100861.00;;;;5020271;28;20193;-80
2022/01/08 04:44:42;;;;;;;5.93;3.97;;;;;6.60;100860.00;;;;5023574;28;20221;-80
2022/01/08 04:47:09;;;;;;;4.78;3.63;;;;;6.60;100857.00;;;;5034731;28;20208;-80
2022/01/08 04:49:37;;;;;;;5.10;2.90;;;;;6.60;100870.00;;;;5036028;28;20199;-80
2022/01/08 04:52:05;;;;;;;5.38;3.03;;;;;6.50;100876.00;;;;5022087;28;20286;-80
2022/01/08 04:54:34;;;;;;;4.18;3.78;;;;;6.50;100866.00;;;;5035787;28;20201;-80
2022/01/08 04:57:01;;;;;;;5.40;3.50;;;;;6.50;100868.00;;;;5017574;28;20196;-80
2022/01/08 04:59:28;;;;;;;4.13;3.20;;;;;6.50;100873.00;;;;5014791;28;20593;-80
2022/01/08 05:01:55;;;;;;;4.25;2.83;;;;;6.50;100863.00;;;;5014783;28;20199;-80
2022/01/08 05:04:23;;;;;;;5.15;3.40;;;;;6.50;100870.00;;;;5029974;28;20224;-80
2022/01/08 05:06:50;;;;;;;3.85;3.03;;;;;6.50;100863.00;;;;5036306;28;20220;-80
2022/01/08 05:09:17;;;;;;;3.67;2.92;;;;;6.50;100865.00;;;;5026641;28;20204;-79
2022/01/08 05:11:46;;;;;;;4.47;3.22;;;;;6.50;100868.00;;;;5023065;28;20192;-80
2022/01/08 05:14:14;;;;;;;4.97;3.20;;;;;6.50;100865.00;;;;5013931;28;20204;-80
2022/01/08 05:16:43;;;;;;;7.70;4.00;;;;;6.50;100862.00;;;;5026591;28;20196;-80
2022/01/08 05:19:10;;;;;;;4.50;3.50;;;;;6.50;100858.00;;;;5014749;28;20221;-80
2022/01/08 05:21:39;;;;;;;6.28;3.60;;;;;6.50;100870.00;;;;5023634;28;20197;-80
2022/01/08 05:24:06;;;;;;;5.00;3.92;;;;;6.50;100856.00;;;;5027313;28;20314;-80
2022/01/08 05:26:34;;;;;;;8.50;4.43;;;;;6.50;100854.00;;;;5037268;28;20573;-81
2022/01/08 05:29:02;;;;;;;3.33;3.03;;;;;6.50;100862.00;;;;5034317;28;20203;-79
2022/01/08 05:31:29;;;;;;;6.28;4.22;;;;;6.50;100870.00;;;;5011991;28;20201;-79
2022/01/08 05:33:57;;;;;;;5.40;3.05;;;;;6.50;100868.00;;;;5038466;28;20207;-79
2022/01/08 05:36:24;;;;;;;5.07;3.28;;;;;6.50;100871.00;;;;5016854;28;20558;-81
2022/01/08 05:38:51;;;;;;;4.18;3.50;;;;;6.50;100876.00;;;;5038198;28;20204;-80
2022/01/08 05:41:18;;;;;;;5.28;3.63;;;;;6.50;100867.00;;;;5028036;28;20571;-81
2022/01/08 05:43:46;;;;;;;6.05;3.95;;;;;6.40;100869.00;;;;5030941;28;20193;-80
2022/01/08 05:46:14;;;;;;;6.95;3.85;;;;;6.40;100873.00;;;;5025790;28;20197;-79
2022/01/08 05:48:41;;;;;;;3.85;3.35;;;;;6.50;100878.00;;;;5020685;28;20201;-81
2022/01/08 05:51:09;;;;;;;7.47;3.67;;;;;6.50;100877.00;;;;5031553;28;20213;-80
2022/01/08 05:53:36;;;;;;;4.35;3.63;;;;;6.50;100878.00;;;;5020343;28;20199;-81
2022/01/08 05:56:04;;;;;;;5.05;3.80;;;;;6.50;100882.00;;;;5029096;28;20209;-78
2022/01/08 05:58:32;;;;;;;5.63;3.50;;;;;6.50;100888.00;;;;5034243;28;20673;-79
2022/01/08 06:00:59;;;;;;;6.18;3.67;;;;;6.50;100891.00;;;;5028281;28;20567;-79
2022/01/08 06:03:27;;;;;;;5.82;3.67;;;;;6.40;100890.00;;;;5027649;28;20215;-79
2022/01/08 06:05:55;;;;;;;5.30;3.63;;;;;6.40;100896.00;;;;5017401;28;20644;-79
2022/01/08 06:08:22;;;;;;;6.32;3.33;;;;;6.40;100898.00;;;;5021303;28;20204;-81
2022/01/08 06:10:49;;;;;;;3.78;2.83;;;;;6.40;100894.00;;;;5027918;28;20196;-80
2022/01/08 06:13:16;;;;;;;4.35;3.22;;;;;6.40;100897.00;;;;5020946;28;20226;-81
2022/01/08 06:15:44;;;;;;;6.60;3.58;;;;;6.40;100888.00;;;;5029547;28;20243;-81
2022/01/08 06:18:11;;;;;;;5.15;2.65;;;;;6.40;100895.00;;;;5027742;28;20636;-81
2022/01/08 06:20:40;;;;;;;6.97;2.85;;;;;6.50;100898.00;;;;5030473;28;20636;-81
2022/01/08 06:23:08;;;;;;;5.47;3.10;;;;;6.50;100895.00;;;;5017383;28;20535;-81
2022/01/08 06:25:35;;;;;;;5.05;2.80;;;;;6.50;100884.00;;;;5022382;28;20216;-80
2022/01/08 06:28:02;;;;;;;4.72;3.45;;;;;6.50;100881.00;;;;5022033;28;20220;-81
2022/01/08 06:30:29;;;;;;;3.65;2.78;;;;;6.50;100876.00;;;;5022506;28;20594;-82
2022/01/08 06:32:56;;;;;;;7.05;3.17;;;;;6.60;100878.00;;;;5025458;28;20203;-81
2022/01/08 06:35:24;;;;;;;5.93;2.70;;;;;6.60;100874.00;;;;5029782;28;20661;-80
2022/01/08 06:37:52;;;;;;;3.95;3.08;;;;;6.60;100878.00;;;;5038944;28;20207;-80
2022/01/08 06:40:20;;;;;;;3.50;2.83;;;;;6.60;100874.00;;;;5047986;28;20196;-80
2022/01/08 06:42:47;;;;;;;4.00;2.70;;;;;6.60;100886.00;;;;5025459;28;20204;-80
2022/01/08 06:45:15;;;;;;;5.78;2.70;;;;;6.70;100872.00;;;;5032541;28;20223;-81
2022/01/08 06:47:45;;;;;;;6.13;2.88;;;;;6.70;100864.00;;;;5027155;28;20200;-80
2022/01/08 06:50:13;;;;;;;3.63;2.42;;;;;6.70;100862.00;;;;5024555;28;20632;-80
2022/01/08 06:52:40;;;;;;;4.40;3.05;;;;;6.70;100864.00;;;;5015284;28;20202;-81
2022/01/08 06:55:10;;;;;;;3.75;2.75;;;;;6.80;100856.00;;;;5036112;28;20203;-80
2022/01/08 06:57:37;;;;;;;5.00;2.85;;;;;6.80;100867.00;;;;5031697;28;20211;-80
2022/01/08 07:00:08;;;;;;;4.90;2.10;;;;;6.80;100867.00;;;;5026841;28;20209;-81
2022/01/08 07:02:36;;;;;;;4.60;1.90;;;;;6.90;100871.00;;;;5031987;28;20197;-81
2022/01/08 07:05:03;;;;;;;3.08;2.20;;;;;6.90;100874.00;;;;5023705;28;20228;-82
2022/01/08 07:07:32;;;;;;;3.08;2.15;;;;;6.90;100882.00;;;;5023339;28;20239;-81
2022/01/08 07:10:00;;;;;;;5.68;1.98;;;;;6.90;100875.00;;;;5017356;28;20576;-83
2022/01/08 07:12:28;;;;;;;3.47;2.05;;;;;7.00;100873.00;;;;5023062;28;20192;-82
2022/01/08 07:14:55;;;;;;;3.03;1.77;;;;;7.00;100875.00;;;;5028242;28;20266;-80
2022/01/08 07:17:23;;;;;;;5.53;2.20;;;;;7.00;100874.00;;;;5032895;28;20717;-81
2022/01/08 07:19:50;;;;;;;4.22;1.60;;;;;7.10;100874.00;;;;5030735;28;20379;-80
2022/01/08 07:22:17;;;;;;;2.58;1.65;;;;;7.10;100866.00;;;;5022318;28;20200;-80
2022/01/08 07:24:44;;;;;;;2.97;1.70;;;;;7.10;100865.00;;;;5032623;28;20219;-81
2022/01/08 07:27:12;;;;;;;3.05;1.58;;;;;7.20;100870.00;;;;5029944;28;20196;-81
2022/01/08 07:29:41;;;;;;;4.00;1.95;;;;;7.10;100865.00;;;;5019479;28;20204;-80
2022/01/08 07:32:08;;;;;;;4.97;2.22;;;;;7.20;100873.00;;;;5023036;28;20679;-81
2022/01/08 07:34:36;;;;;;;2.55;1.60;;;;;7.20;100869.00;;;;5021739;28;20209;-80
2022/01/08 07:37:03;;;;;;;5.85;2.30;;;;;7.20;100870.00;;;;5015162;28;20194;-80
2022/01/08 07:39:31;;;;;;;4.45;2.28;;;;;7.20;100869.00;;;;5025410;28;20674;-80
2022/01/08 07:41:58;;;;;;;7.88;2.20;;;;;7.30;100864.00;;;;5021301;28;20209;-81
2022/01/08 07:44:25;;;;;;;5.97;2.58;;;;;7.30;100858.00;;;;5013711;28;20204;-81
2022/01/08 07:46:54;;;;;;;3.83;1.90;;;;;7.30;100860.00;;;;5021679;28;20193;-80
2022/01/08 07:49:24;;;;;;;3.92;2.53;;;;;7.30;100864.00;;;;5026808;28;20730;-81
2022/01/08 07:51:51;;;;;;;4.72;2.22;;;;;7.40;100862.00;;;;5028732;28;20200;-81
2022/01/08 07:54:19;;;;;;;3.35;2.17;;;;;7.40;100871.00;;;;5023469;28;20205;-81
2022/01/08 07:56:46;;;;;;;3.97;1.73;;;;;7.50;100873.00;;;;5027804;28;20452;-82
2022/01/08 07:59:13;;;;;;;6.38;2.45;;;;;7.50;100866.00;;;;5027506;28;20196;-82
2022/01/08 08:01:40;;;;;;;2.58;1.83;;;;;7.50;100867.00;;;;5015510;28;20295;-82
2022/01/08 08:04:09;;;;;;;2.58;2.10;;;;;7.60;100865.00;;;;5018565;28;20204;-78
2022/01/08 08:06:45;;;;;;;2.80;1.85;;;;;7.60;100862.00;;;;5029947;28;20243;-77
2022/01/08 08:09:12;;;;;;;5.15;2.65;;;;;7.70;100854.00;;;;5044943;28;20195;-78
2022/01/08 08:11:39;;;;;;;4.43;2.28;;;;;7.70;100853.00;;;;5027092;28;20415;-81
2022/01/08 08:14:07;;;;;;;3.88;2.65;;;;;7.80;100847.00;;;;5027327;28;20206;-82
2022/01/08 08:16:34;;;;;;;4.53;2.80;;;;;7.80;100847.00;;;;5024642;28;20207;-80
2022/01/08 08:19:01;;;;;;;8.63;4.93;;;;;7.80;100827.00;;;;5019673;28;20971;-80
2022/01/08 08:21:31;;;;;;;10.27;6.25;;;;;7.80;100839.00;;;;5022858;28;20459;-80
2022/01/08 08:23:59;;;;;;;6.43;3.72;;;;;8.10;100824.00;;;;5031563;28;20195;-81
2022/01/08 08:26:26;;;;;;;7.35;3.35;;;;;8.10;100827.00;;;;5026813;28;20239;-80
2022/01/08 08:28:53;;;;;;;4.50;2.90;;;;;8.20;100822.00;;;;5031904;28;20564;-80
2022/01/08 08:31:21;;;;;;;5.00;3.17;;;;;8.20;100831.00;;;;5035339;28;20192;-81
2022/01/08 08:33:48;;;;;;;5.43;2.90;;;;;8.30;100827.00;;;;5033963;28;20988;-81
2022/01/08 08:36:15;;;;;;;4.53;2.85;;;;;8.30;100828.00;;;;5010721;28;20192;-81
2022/01/08 08:38:44;;;;;;;6.95;3.40;;;;;8.30;100823.00;;;;5027298;28;20215;-82
2022/01/08 08:41:11;;;;;;;7.30;3.50;;;;;8.40;100823.00;;;;5026839;28;20626;-82
2022/01/08 08:43:38;;;;;;;6.18;3.72;;;;;8.40;100816.00;;;;5027428;28;20204;-82
2022/01/08 08:46:06;;;;;;;6.75;3.60;;;;;8.40;100816.00;;;;5015809;28;20229;-83
2022/01/08 08:48:36;;;;;;;5.50;3.42;;;;;8.40;100818.00;;;;5008368;28;20209;-83
2022/01/08 08:51:04;;;;;;;5.47;3.00;;;;;8.50;100803.00;;;;5017441;28;20207;-83
2022/01/08 08:53:31;;;;;;;4.63;3.30;;;;;8.50;100811.00;;;;5026914;28;20200;-81
2022/01/08 08:56:00;;;;;;;5.35;3.53;;;;;8.50;100799.00;;;;5034563;28;20207;-82
2022/01/08 08:58:27;;;;;;;4.93;2.95;;;;;8.60;100802.00;;;;5020561;28;20200;-82
2022/01/08 09:00:54;;;;;;;5.30;3.92;;;;;8.60;100799.00;;;;5011218;28;20666;-82
2022/01/08 09:03:21;;;;;;;5.50;3.63;;;;;8.70;100794.00;;;;5012864;28;20263;-82
2022/01/08 09:05:49;;;;;;;4.72;3.50;;;;;8.70;100798.00;;;;5022134;28;20220;-82
2022/01/08 09:08:16;;;;;;;3.53;2.90;;;;;8.70;100799.00;;;;5026605;28;20212;-82
2022/01/08 09:10:43;;;;;;;7.15;3.42;;;;;8.70;100797.00;;;;5029746;28;20216;-82
2022/01/08 09:13:12;;;;;;;3.88;3.03;;;;;8.70;100799.00;;;;5025282;28;20212;-82
2022/01/08 09:15:41;;;;;;;4.05;2.90;;;;;8.80;100793.00;;;;5020090;28;20201;-82
2022/01/08 09:18:10;;;;;;;5.18;3.55;;;;;8.80;100795.00;;;;5022742;28;20587;-84
2022/01/08 09:20:37;;;;;;;5.80;3.53;;;;;8.80;100792.00;;;;5015819;28;20212;-83
2022/01/08 09:23:05;;;;;;;5.82;3.88;;;;;8.80;100790.00;;;;5030580;28;20200;-82
2022/01/08 09:25:32;;;;;;;4.53;3.30;;;;;8.90;100779.00;;;;5029557;28;20228;-81
2022/01/08 09:28:00;;;;;;;4.82;2.95;;;;;8.90;100783.00;;;;5026593;28;20685;-81
2022/01/08 09:30:29;;;;;;;7.28;3.67;;;;;8.90;100780.00;;;;5027286;28;20195;-80
2022/01/08 09:32:56;;;;;;;6.38;4.10;;;;;9.00;100776.00;;;;5009417;28;21082;-81
2022/01/08 09:35:25;;;;;;;5.05;3.63;;;;;9.00;100773.00;;;;5021289;28;20204;-80
2022/01/08 09:37:53;;;;;;;4.15;3.20;;;;;9.00;100776.00;;;;5013706;28;20814;-79
2022/01/08 09:40:23;;;;;;;8.75;4.10;;;;;9.00;100767.00;;;;5010441;28;20201;-79
2022/01/08 09:42:51;;;;;;;5.30;3.53;;;;;9.00;100760.00;;;;5026218;28;20306;-80
2022/01/08 09:45:19;;;;;;;4.72;3.67;;;;;9.10;100755.00;;;;5026990;28;20232;-80
2022/01/08 09:47:47;;;;;;;9.63;4.63;;;;;9.10;100752.00;;;;5018228;28;20215;-80
2022/01/08 09:50:15;;;;;;;4.65;3.10;;;;;9.10;100743.00;;;;5025725;28;20683;-80
2022/01/08 09:52:42;;;;;;;6.95;4.35;;;;;9.20;100733.00;;;;5016636;28;20208;-80
2022/01/08 09:55:10;;;;;;;6.43;4.00;;;;;9.20;100728.00;;;;5019780;28;20211;-81
2022/01/08 09:57:37;;;;;;;5.55;3.20;;;;;9.20;100716.00;;;;5022909;28;20199;-81
2022/01/08 10:00:12;;;;;;;5.47;3.65;;;;;9.20;100721.00;;;;5018897;28;20212;-81
2022/01/08 10:02:39;;;;;;;5.88;3.72;;;;;9.30;100726.00;;;;5015476;28;20201;-80
2022/01/08 10:05:11;;;;;;;5.70;3.55;;;;;9.30;100708.00;;;;5016527;28;20200;-81
2022/01/08 10:07:40;;;;;;;7.72;3.92;;;;;9.40;100705.00;;;;5022968;28;20583;-80
2022/01/08 10:10:13;;;;;;;5.00;3.17;;;;;9.50;100703.00;;;;5027189;28;20256;-80
2022/01/08 10:12:44;;;;;;;7.80;3.65;;;;;9.50;100700.00;;;;5017471;28;20376;-80
2022/01/08 10:18:00;;;;;;;5.25;3.75;;;;;9.60;100676.00;;;;5023101;28;20317;-81
2022/01/08 10:20:37;;;;;;;4.50;3.60;;;;;9.60;100663.00;;;;5028569;28;20196;-82
2022/01/08 10:23:16;;;;;;;12.18;4.38;;;;;9.60;100655.00;;;;5028949;28;20235;-82
2022/01/08 10:25:55;;;;;;;5.65;3.33;;;;;9.70;100650.00;;;;5029847;28;20231;-82
2022/01/08 10:28:37;;;;;;;6.68;4.38;;;;;9.70;100641.00;;;;5020917;28;20274;-82
2022/01/08 10:31:13;;;;;;;6.32;4.00;;;;;9.70;100638.00;;;;5012278;28;20204;-79
2022/01/08 10:33:42;;;;;;;7.30;4.22;;;;;9.80;100631.00;;;;5014849;28;20201;-80
2022/01/08 10:36:12;;;;;;;6.00;4.70;;;;;9.80;100618.00;;;;5020315;28;20200;-80
2022/01/08 10:38:40;;;;;;;6.95;4.18;;;;;9.80;100613.00;;;;5018105;28;20280;-80
2022/01/08 10:41:15;;;;;;;5.43;4.47;;;;;9.80;100604.00;;;;5027288;28;20199;-81
2022/01/08 10:43:44;;;;;;;8.27;4.07;;;;;9.90;100603.00;;;;5012021;28;20724;-80
2022/01/08 10:46:14;;;;;;;7.38;4.55;;;;;9.90;100598.00;;;;5010953;28;20247;-81
2022/01/08 10:48:49;;;;;;;7.75;4.90;;;;;9.90;100587.00;;;;5009448;28;21057;-81
2022/01/08 10:51:23;;;;;;;7.57;5.32;;;;;9.90;100608.00;;;;5020054;28;20203;-80
2022/01/08 10:53:55;;;;;;;5.70;3.95;;;;;9.90;100606.00;;;;5009436;28;20312;-80
2022/01/08 10:56:25;;;;;;;5.20;4.07;;;;;10.00;100601.00;;;;5010392;28;20201;-79
2022/01/08 10:58:55;;;;;;;6.60;4.28;;;;;10.00;100592.00;;;;5022184;28;20207;-80
2022/01/08 11:01:46;;;;;;;9.40;4.65;;;;;9.90;100589.00;;;;5023557;28;20200;-80
2022/01/08 11:04:16;;;;;;;6.32;4.13;;;;;10.10;100581.00;;;;5013208;28;20201;-82
2022/01/08 11:06:56;;;;;;;6.28;4.60;;;;;10.10;100586.00;;;;5010054;28;20225;-80
2022/01/08 11:09:25;;;;;;;6.18;4.43;;;;;10.10;100570.00;;;;5014236;28;20201;-81
2022/01/08 11:11:54;;;;;;;7.75;4.60;;;;;10.20;100562.00;;;;5027339;28;20200;-81
2022/01/08 11:17:11;;;;;;;7.05;4.10;;;;;10.20;100549.00;;;;5014698;28;20219;-80
2022/01/08 11:19:40;;;;;;;5.97;4.18;;;;;10.20;100542.00;;;;5016561;28;20204;-81
2022/01/08 11:22:13;;;;;;;6.65;4.75;;;;;10.20;100545.00;;;;5027527;28;20192;-81
2022/01/08 11:24:54;;;;;;;7.30;4.55;;;;;10.20;100536.00;;;;5026287;28;20192;-81
2022/01/08 11:27:25;;;;;;;8.13;5.05;;;;;10.20;100530.00;;;;5017484;28;20230;-80
2022/01/08 11:30:06;;;;;;;7.80;4.97;;;;;10.20;100531.00;;;;5017795;28;20200;-80
2022/01/08 11:32:37;;;;;;;7.97;4.55;;;;;10.20;100522.00;;;;5010486;28;20208;-79
2022/01/08 11:35:06;;;;;;;9.80;5.55;;;;;10.20;100514.00;;;;5013309;28;20211;-81
2022/01/08 11:37:35;;;;;;;8.13;5.47;;;;;10.20;100503.00;;;;5019646;28;20203;-81
2022/01/08 11:40:05;;;;;;;7.20;4.63;;;;;10.30;100491.00;;;;5016379;28;20201;-81
2022/01/08 11:42:35;;;;;;;7.72;4.78;;;;;10.30;100484.00;;;;5025760;28;20285;-79
2022/01/08 11:45:07;;;;;;;8.57;5.18;;;;;10.30;100476.00;;;;5023713;28;20220;-79
2022/01/08 11:47:34;;;;;;;9.23;5.28;;;;;10.40;100465.00;;;;5024717;28;20232;-79
2022/01/08 11:50:04;;;;;;;8.43;5.28;;;;;10.40;100464.00;;;;5019390;28;20204;-78
2022/01/08 11:52:32;;;;;;;6.65;4.32;;;;;10.50;100450.00;;;;5021736;28;20200;-79
2022/01/08 11:55:01;;;;;;;7.90;4.93;;;;;10.50;100456.00;;;;5016386;28;20204;-79
2022/01/08 11:57:31;;;;;;;7.40;4.70;;;;;10.50;100444.00;;;;5017657;28;20200;-79
2022/01/08 11:59:58;;;;;;;8.57;4.07;;;;;10.50;100441.00;;;;5014804;28;20206;-79
2022/01/08 12:02:40;;;;;;;8.88;4.32;;;;;10.40;100425.00;;;;5018957;28;20204;-80
2022/01/08 12:05:09;;;;;;;8.23;4.70;;;;;10.50;100407.00;;;;5031073;28;20669;-79
2022/01/08 12:07:39;;;;;;;8.65;4.65;;;;;10.50;100399.00;;;;5022015;28;20235;-80
2022/01/08 12:10:16;;;;;;;7.75;4.88;;;;;10.50;100385.00;;;;5012042;28;20200;-78
2022/01/08 12:12:55;;;;;;;6.70;4.38;;;;;10.60;100376.00;;;;5024069;28;20214;-78
2022/01/08 12:15:49;;;;;;;6.57;4.25;;;;;10.50;100352.00;;;;5022206;28;20211;-78
2022/01/08 12:18:19;;;;;;;6.65;4.30;;;;;10.50;100351.00;;;;5012699;28;20263;-78
2022/01/08 12:20:50;;;;;;;6.38;4.20;;;;;10.50;100341.00;;;;5017949;28;20200;-78
2022/01/08 12:23:35;;;;;;;9.25;3.90;;;;;10.40;100330.00;;;;5020624;28;20216;-77
2022/01/08 12:26:06;;;;;;;8.55;4.60;;;;;10.50;100332.00;;;;5022079;28;20207;-79
2022/01/08 12:28:56;;;;;;;7.97;4.30;;;;;10.40;100309.00;;;;5026428;28;20203;-78
2022/01/08 12:31:24;;;;;;;5.45;3.92;;;;;10.50;100309.00;;;;5022978;28;20196;-78
2022/01/08 12:34:37;;;;;;;7.28;3.90;;;;;10.40;100291.00;;;;5023861;28;22314;-79
2022/01/08 12:37:07;;;;;;;5.68;3.65;;;;;10.50;100291.00;;;;4992986;28;20208;-80
2022/01/08 12:39:53;;;;;;;5.63;3.45;;;;;10.40;100278.00;;;;5023589;28;20774;-79
2022/01/08 12:42:39;;;;;;;7.00;4.03;;;;;10.40;100281.00;;;;5006350;28;20203;-80
2022/01/08 12:45:10;;;;;;;6.95;4.15;;;;;10.50;100266.00;;;;5017565;28;20204;-80